createdAt,value
2019-05-19T00:01:20.450Z,7.35
2019-05-19T00:03:21.710Z,6.33
2019-05-19T00:05:22.986Z,7.37
2019-05-19T00:07:24.277Z,6.75
2019-05-19T00:09:25.776Z,7.15
2019-05-19T00:11:27.202Z,6.17
2019-05-19T00:15:29.902Z,7.50
2019-05-19T00:17:31.431Z,7.10
2019-05-19T00:19:32.865Z,7.47
2019-05-19T00:21:34.139Z,7.03
2019-05-19T00:23:35.398Z,7.00
2019-05-19T00:25:36.922Z,7.28
2019-05-19T00:27:38.438Z,7.55
2019-05-19T00:29:39.697Z,7.22
2019-05-19T00:31:40.969Z,7.17
2019-05-19T00:33:42.361Z,8.48
2019-05-19T00:35:43.702Z,7.33
2019-05-19T00:37:44.959Z,7.80
2019-05-19T00:39:46.503Z,7.55
2019-05-19T00:41:47.763Z,7.85
2019-05-19T00:43:50.033Z,7.67
2019-05-19T00:45:51.301Z,7.40
2019-05-19T00:47:52.681Z,7.97
2019-05-19T00:49:54.204Z,7.28
2019-05-19T00:51:55.458Z,6.50
2019-05-19T00:53:56.734Z,7.72
2019-05-19T00:55:58.419Z,7.28
2019-05-19T01:00:05.079Z,7.25
2019-05-19T01:02:06.655Z,7.42
2019-05-19T01:04:07.987Z,8.10
2019-05-19T01:06:09.561Z,7.90
2019-05-19T01:10:13.921Z,7.70
2019-05-19T01:12:15.441Z,7.20
2019-05-19T01:16:18.550Z,7.53
2019-05-19T01:18:20.090Z,7.95
2019-05-19T01:20:21.507Z,7.92
2019-05-19T01:22:22.761Z,7.22
2019-05-19T01:24:24.030Z,7.10
2019-05-19T01:26:25.305Z,7.78
2019-05-19T01:28:26.574Z,8.08
2019-05-19T01:30:27.849Z,7.30
2019-05-19T01:32:29.402Z,7.72
2019-05-19T01:34:30.905Z,7.20
2019-05-19T01:36:32.175Z,7.20
2019-05-19T01:38:33.581Z,6.45
2019-05-19T01:40:34.924Z,7.22
2019-05-19T01:42:36.182Z,7.58
2019-05-19T01:44:37.495Z,7.03
2019-05-19T01:46:39.151Z,6.33
2019-05-19T01:50:41.626Z,7.30
2019-05-19T01:52:42.882Z,7.60
2019-05-19T01:54:44.270Z,7.40
2019-05-19T01:56:45.535Z,7.55
2019-05-19T01:58:46.814Z,6.85
2019-05-19T02:00:49.226Z,7.35
2019-05-19T02:02:50.553Z,6.97
2019-05-19T02:04:51.822Z,7.28
2019-05-19T02:06:54.346Z,7.25
2019-05-19T02:08:55.606Z,7.40
2019-05-19T02:10:57.124Z,7.67
2019-05-19T02:12:58.385Z,7.62
2019-05-19T02:15:00.298Z,7.12
2019-05-19T02:17:01.833Z,6.90
2019-05-19T02:19:03.258Z,7.17
2019-05-19T02:21:05.086Z,7.67
2019-05-19T02:23:06.675Z,6.97
2019-05-19T02:27:10.475Z,7.28
2019-05-19T02:29:11.736Z,7.15
2019-05-19T02:31:13.152Z,7.53
2019-05-19T02:33:14.414Z,7.00
2019-05-19T02:35:15.885Z,7.87
2019-05-19T02:37:17.150Z,6.70
2019-05-19T02:39:18.413Z,7.40
2019-05-19T02:41:21.088Z,7.40
2019-05-19T02:43:23.862Z,7.67
2019-05-19T02:45:28.790Z,7.33
2019-05-19T02:47:31.426Z,7.90
2019-05-19T02:49:33.337Z,7.28
2019-05-19T02:51:36.459Z,7.62
2019-05-19T02:53:38.018Z,7.72
2019-05-19T02:55:39.579Z,7.35
2019-05-19T02:57:40.841Z,7.20
2019-05-19T02:59:42.706Z,6.70
2019-05-19T03:02:00.979Z,6.90
2019-05-19T03:04:02.234Z,7.67
2019-05-19T03:06:04.503Z,7.42
2019-05-19T03:08:05.872Z,8.23
2019-05-19T03:10:09.287Z,7.45
2019-05-19T03:12:10.551Z,7.40
2019-05-19T03:14:11.816Z,7.17
2019-05-19T03:16:13.086Z,7.60
2019-05-19T03:18:14.361Z,8.55
2019-05-19T03:20:16.730Z,8.30
2019-05-19T03:22:18.093Z,7.92
2019-05-19T03:24:19.357Z,8.45
2019-05-19T03:26:20.634Z,7.47
2019-05-19T03:28:22.001Z,7.05
2019-05-19T03:30:41.629Z,8.68
2019-05-19T03:32:44.991Z,7.60
2019-05-19T03:34:46.598Z,7.90
2019-05-19T03:36:47.869Z,7.50
2019-05-19T03:38:49.230Z,8.13
2019-05-19T03:40:51.784Z,8.48
2019-05-19T03:42:53.053Z,7.70
2019-05-19T03:44:54.326Z,7.92
2019-05-19T03:46:55.642Z,8.33
2019-05-19T03:48:56.903Z,7.83
2019-05-19T03:50:58.243Z,8.33
2019-05-19T03:52:59.511Z,7.97
2019-05-19T03:55:01.029Z,8.85
2019-05-19T03:57:02.302Z,7.72
2019-05-19T03:59:03.566Z,7.72
2019-05-19T04:01:04.826Z,8.75
2019-05-19T04:03:06.118Z,7.95
2019-05-19T04:05:07.487Z,8.05
2019-05-19T04:07:09.113Z,8.90
2019-05-19T04:09:10.387Z,8.70
2019-05-19T04:11:11.705Z,9.33
2019-05-19T04:13:12.973Z,8.70
2019-05-19T04:15:14.440Z,8.95
2019-05-19T04:17:15.710Z,8.45
2019-05-19T04:19:17.050Z,9.10
2019-05-19T04:23:20.435Z,8.73
2019-05-19T04:25:21.698Z,9.00
2019-05-19T04:27:23.267Z,8.15
2019-05-19T04:31:25.935Z,8.85
2019-05-19T04:33:27.208Z,8.33
2019-05-19T04:35:28.514Z,9.00
2019-05-19T04:37:29.877Z,8.85
2019-05-19T04:39:31.242Z,9.40
2019-05-19T04:41:32.698Z,9.05
2019-05-19T04:43:34.013Z,8.75
2019-05-19T04:45:35.285Z,9.55
2019-05-19T04:47:36.722Z,10.10
2019-05-19T04:49:39.868Z,9.70
2019-05-19T04:51:41.142Z,9.03
2019-05-19T04:53:45.823Z,10.00
2019-05-19T04:55:49.965Z,8.13
2019-05-19T04:57:51.505Z,8.58
2019-05-19T04:59:52.767Z,9.48
2019-05-19T05:01:54.273Z,9.78
2019-05-19T05:03:55.690Z,10.40
2019-05-19T05:05:56.957Z,9.45
2019-05-19T05:07:58.283Z,9.28
2019-05-19T05:09:59.687Z,10.60
2019-05-19T05:12:00.981Z,8.68
2019-05-19T05:14:02.341Z,10.32
2019-05-19T05:16:03.885Z,9.08
2019-05-19T05:20:07.087Z,9.30
2019-05-19T05:22:21.309Z,9.45
2019-05-19T05:24:11.768Z,9.05
2019-05-19T05:26:13.102Z,9.05
2019-05-19T05:28:15.375Z,8.78
2019-05-19T05:30:16.935Z,9.35
2019-05-19T05:32:18.211Z,9.45
2019-05-19T05:34:19.493Z,9.00
2019-05-19T05:36:21.071Z,9.13
2019-05-19T05:38:22.389Z,11.12
2019-05-19T05:40:23.650Z,10.98
2019-05-19T05:42:24.917Z,9.18
2019-05-19T05:44:26.193Z,9.98
2019-05-19T05:46:27.706Z,9.25
2019-05-19T05:48:29.013Z,9.18
2019-05-19T05:50:30.342Z,12.20
2019-05-19T05:52:38.596Z,10.05
2019-05-19T05:54:34.806Z,9.83
2019-05-19T05:56:36.077Z,11.25
2019-05-19T05:58:37.355Z,10.03
2019-05-19T06:00:38.617Z,9.10
2019-05-19T06:02:40.311Z,9.43
2019-05-19T06:06:45.813Z,10.55
2019-05-19T06:08:46.314Z,11.50
2019-05-19T06:10:47.967Z,11.60
2019-05-19T06:12:49.316Z,12.80
2019-05-19T06:14:50.937Z,11.00
2019-05-19T06:18:53.377Z,10.90
2019-05-19T06:20:54.705Z,11.57
2019-05-19T06:22:57.245Z,11.80
2019-05-19T06:24:59.340Z,10.95
2019-05-19T06:27:00.877Z,10.82
2019-05-19T06:29:02.612Z,10.45
2019-05-19T06:31:03.985Z,13.38
2019-05-19T06:33:05.534Z,12.63
2019-05-19T06:35:08.459Z,11.28
2019-05-19T06:37:09.733Z,10.35
2019-05-19T06:39:11.369Z,11.35
2019-05-19T06:43:14.050Z,11.97
2019-05-19T06:45:15.441Z,11.85
2019-05-19T06:47:16.767Z,10.45
2019-05-19T06:49:18.044Z,13.05
2019-05-19T06:51:19.302Z,12.15
2019-05-19T06:53:20.574Z,10.13
2019-05-19T06:55:21.968Z,9.43
2019-05-19T06:57:24.545Z,9.68
2019-05-19T06:59:25.820Z,12.82
2019-05-19T07:01:27.082Z,12.30
2019-05-19T07:03:28.511Z,13.28
2019-05-19T07:05:30.143Z,12.88
2019-05-19T07:07:31.427Z,10.80
2019-05-19T07:09:33.008Z,13.08
2019-05-19T07:13:35.710Z,10.95
2019-05-19T07:15:36.988Z,8.50
2019-05-19T07:17:38.258Z,12.50
2019-05-19T07:19:39.559Z,13.28
2019-05-19T07:21:40.866Z,12.05
2019-05-19T07:23:42.392Z,12.70
2019-05-19T07:25:43.674Z,12.68
2019-05-19T07:27:45.194Z,12.15
2019-05-19T07:29:46.471Z,11.63
2019-05-19T07:31:47.925Z,12.88
2019-05-19T07:33:49.710Z,11.75
2019-05-19T07:35:50.981Z,12.90
2019-05-19T07:37:52.518Z,11.15
2019-05-19T07:41:54.938Z,11.87
2019-05-19T07:43:56.215Z,12.90
2019-05-19T07:45:57.488Z,9.48
2019-05-19T07:47:58.758Z,12.70
2019-05-19T07:50:00.029Z,11.78
2019-05-19T07:52:01.315Z,13.55
2019-05-19T07:54:02.585Z,12.65
2019-05-19T07:56:03.954Z,12.15
2019-05-19T07:58:05.653Z,11.20
2019-05-19T08:02:08.687Z,12.23
2019-05-19T08:04:09.957Z,10.38
2019-05-19T08:06:11.272Z,12.10
2019-05-19T08:08:12.599Z,11.38
2019-05-19T08:10:13.974Z,9.73
2019-05-19T08:12:15.237Z,10.98
2019-05-19T08:14:16.522Z,11.03
2019-05-19T08:16:18.151Z,10.72
2019-05-19T08:20:20.635Z,10.50
2019-05-19T08:22:21.941Z,10.48
2019-05-19T08:24:23.349Z,9.63
2019-05-19T08:28:26.193Z,9.65
2019-05-19T08:30:31.026Z,10.72
2019-05-19T08:32:32.318Z,9.83
2019-05-19T08:34:33.633Z,10.20
2019-05-19T08:36:34.956Z,10.10
2019-05-19T08:38:39.049Z,10.40
2019-05-19T08:40:40.477Z,10.18
2019-05-19T08:42:41.827Z,10.50
2019-05-19T08:44:43.121Z,11.15
2019-05-19T08:46:44.388Z,10.08
2019-05-19T08:48:48.581Z,10.78
2019-05-19T08:50:49.863Z,10.68
2019-05-19T08:52:51.264Z,10.10
2019-05-19T08:54:52.579Z,9.48
2019-05-19T08:56:53.889Z,10.88
2019-05-19T08:58:55.169Z,10.72
2019-05-19T09:00:56.461Z,10.05
2019-05-19T09:02:57.720Z,7.08
2019-05-19T09:05:00.945Z,10.15
2019-05-19T09:07:02.216Z,10.35
2019-05-19T09:09:04.611Z,9.38
2019-05-19T09:13:07.464Z,9.65
2019-05-19T09:15:09.280Z,9.30
2019-05-19T09:17:10.575Z,10.10
2019-05-19T09:21:13.525Z,9.55
2019-05-19T09:23:15.955Z,10.23
2019-05-19T09:25:17.437Z,10.28
2019-05-19T09:27:18.805Z,10.68
2019-05-19T09:29:20.082Z,9.75
2019-05-19T09:31:21.696Z,10.10
2019-05-19T09:33:22.950Z,10.90
2019-05-19T09:35:24.235Z,10.45
2019-05-19T09:37:25.519Z,8.85
2019-05-19T09:39:26.862Z,10.58
2019-05-19T09:41:28.337Z,9.60
2019-05-19T09:45:30.869Z,10.20
2019-05-19T09:47:32.356Z,11.03
2019-05-19T09:49:36.519Z,9.98
2019-05-19T09:51:37.801Z,10.93
2019-05-19T09:53:39.336Z,11.20
2019-05-19T09:55:41.054Z,11.35
2019-05-19T09:57:42.440Z,12.18
2019-05-19T09:59:43.813Z,10.93
2019-05-19T10:01:45.105Z,12.23
2019-05-19T10:03:46.706Z,12.33
2019-05-19T10:05:48.304Z,11.45
2019-05-19T10:07:49.622Z,11.12
2019-05-19T10:09:57.793Z,11.33
2019-05-19T10:12:06.397Z,11.35
2019-05-19T10:14:07.928Z,15.75
2019-05-19T10:18:10.482Z,13.05
2019-05-19T10:20:13.983Z,12.25
2019-05-19T10:22:15.334Z,11.25
2019-05-19T10:24:17.147Z,11.70
2019-05-19T10:26:18.783Z,11.48
2019-05-19T10:28:21.463Z,11.33
2019-05-19T10:30:22.741Z,21.80
2019-05-19T10:32:24.276Z,12.55
2019-05-19T10:34:25.581Z,11.48
2019-05-19T10:36:26.918Z,11.95
2019-05-19T10:40:29.490Z,10.63
2019-05-19T10:44:32.254Z,11.22
2019-05-19T10:46:33.736Z,11.45
2019-05-19T10:50:36.647Z,10.60
2019-05-19T10:52:38.141Z,11.10
2019-05-19T10:54:39.819Z,12.47
2019-05-19T10:56:41.119Z,11.97
2019-05-19T10:58:42.444Z,11.43
2019-05-19T11:02:44.974Z,12.63
2019-05-19T11:06:47.486Z,12.43
2019-05-19T11:08:48.866Z,13.08
2019-05-19T11:10:50.450Z,13.13
2019-05-19T11:12:51.828Z,11.12
2019-05-19T11:16:54.318Z,12.65
2019-05-19T11:18:55.602Z,11.73
2019-05-19T11:22:58.177Z,11.90
2019-05-19T11:24:59.650Z,11.95
2019-05-19T11:27:01.197Z,11.48
2019-05-19T11:29:02.710Z,11.53
2019-05-19T11:31:04.009Z,12.20
2019-05-19T11:33:05.296Z,11.70
2019-05-19T11:37:07.805Z,12.23
2019-05-19T11:41:10.529Z,13.10
2019-05-19T11:43:11.878Z,12.25
2019-05-19T11:45:13.342Z,12.05
2019-05-19T11:47:14.670Z,11.22
2019-05-19T11:49:17.175Z,11.55
2019-05-19T11:53:19.938Z,10.90
2019-05-19T11:57:22.550Z,10.10
2019-05-19T12:11:31.985Z,8.60
2019-05-19T12:15:36.458Z,8.43
2019-05-19T12:17:37.994Z,9.10
2019-05-19T12:19:39.542Z,8.43
2019-05-19T12:21:40.834Z,8.70
2019-05-19T12:25:43.696Z,8.95
2019-05-19T12:27:45.205Z,8.65
2019-05-19T12:29:46.563Z,8.15
2019-05-19T12:33:51.935Z,7.37
2019-05-19T12:35:52.525Z,7.97
2019-05-19T12:39:54.995Z,7.67
2019-05-19T12:41:56.619Z,7.92
2019-05-19T12:48:00.521Z,7.95
2019-05-19T12:50:03.550Z,8.85
2019-05-19T12:52:04.997Z,8.48
2019-05-19T12:56:07.592Z,7.95
2019-05-19T12:58:08.941Z,9.10
2019-05-19T13:02:12.104Z,9.08
2019-05-19T13:04:13.553Z,8.40
2019-05-19T13:08:16.348Z,9.58
2019-05-19T13:10:17.637Z,9.13
2019-05-19T13:14:20.505Z,9.43
2019-05-19T13:16:21.775Z,8.83
2019-05-19T13:18:23.066Z,9.23
2019-05-19T13:22:25.866Z,9.30
2019-05-19T13:24:27.312Z,8.78
2019-05-19T13:28:29.745Z,8.65
2019-05-19T13:32:32.486Z,8.38
2019-05-19T13:34:33.835Z,8.80
2019-05-19T13:38:36.329Z,9.53
2019-05-19T13:40:37.757Z,9.23
2019-05-19T13:44:40.620Z,10.10
2019-05-19T13:46:41.969Z,9.48
2019-05-19T13:48:45.661Z,9.28
2019-05-19T13:50:46.910Z,9.73
2019-05-19T13:52:51.100Z,9.68
2019-05-19T13:54:52.472Z,9.05
2019-05-19T13:56:53.748Z,8.80
2019-05-19T13:58:55.550Z,8.95
2019-05-19T14:02:59.385Z,8.90
2019-05-19T14:07:04.454Z,8.18
2019-05-19T14:09:15.228Z,8.03
2019-05-19T14:11:16.713Z,7.72
2019-05-19T14:15:19.661Z,9.05
2019-05-19T14:17:20.968Z,8.05
2019-05-19T14:19:25.242Z,8.25
2019-05-19T14:25:29.030Z,6.95
2019-05-19T14:27:31.069Z,7.00
2019-05-19T14:29:32.482Z,7.07
2019-05-19T14:33:35.072Z,6.72
2019-05-19T14:39:38.854Z,6.77
2019-05-19T14:43:43.759Z,7.50
2019-05-19T14:45:45.195Z,7.17
2019-05-19T14:47:46.529Z,7.08
2019-05-19T14:49:48.141Z,6.42
2019-05-19T14:51:49.495Z,7.50
2019-05-19T14:53:51.117Z,7.35
2019-05-19T14:57:53.807Z,7.33
2019-05-19T14:59:56.394Z,6.97
2019-05-19T15:01:57.677Z,7.25
2019-05-19T15:03:58.959Z,8.23
2019-05-19T15:06:00.318Z,7.15
2019-05-19T15:08:01.578Z,7.62
2019-05-19T15:10:04.160Z,7.30
2019-05-19T15:12:05.779Z,7.15
2019-05-19T15:16:08.847Z,7.33
2019-05-19T15:18:10.233Z,7.67
2019-05-19T15:20:13.006Z,7.45
2019-05-19T15:22:14.536Z,8.13
2019-05-19T15:34:25.253Z,7.53
2019-05-19T15:52:39.169Z,8.80
2019-05-19T15:54:41.781Z,8.18
2019-05-19T15:56:43.186Z,8.30
2019-05-19T15:58:44.348Z,8.33
2019-05-19T16:00:46.081Z,7.80
2019-05-19T16:02:49.263Z,8.65
2019-05-19T16:04:51.141Z,9.05
2019-05-19T16:06:52.556Z,8.25
2019-05-19T16:08:53.957Z,8.73
2019-05-19T16:10:55.399Z,8.50
2019-05-19T16:12:56.560Z,7.85
2019-05-19T16:14:57.986Z,8.35
2019-05-19T16:17:00.052Z,7.97
2019-05-19T16:19:01.234Z,7.80
2019-05-19T16:21:02.679Z,7.83
2019-05-19T16:23:03.962Z,8.50
2019-05-19T16:25:06.804Z,9.53
2019-05-19T16:27:08.014Z,8.80
2019-05-19T16:31:10.255Z,9.63
2019-05-19T16:33:11.435Z,8.75
2019-05-19T16:37:13.637Z,7.65
2019-05-19T16:39:15.890Z,8.10
2019-05-19T16:41:19.062Z,8.68
2019-05-19T16:45:23.450Z,8.28
2019-05-19T16:47:24.777Z,8.00
2019-05-19T16:49:26.078Z,8.83
2019-05-19T16:53:28.902Z,7.90
2019-05-19T16:55:31.741Z,8.20
2019-05-19T16:57:33.171Z,8.48
2019-05-19T16:59:34.550Z,8.10
2019-05-19T17:01:36.062Z,8.45
2019-05-19T17:03:37.446Z,8.55
2019-05-19T17:05:38.802Z,8.95
2019-05-19T17:07:53.686Z,8.55
2019-05-19T17:09:55.021Z,8.30
2019-05-19T17:11:56.454Z,8.38
2019-05-19T17:13:58.737Z,7.47
2019-05-19T17:18:01.187Z,7.25
2019-05-19T17:22:05.506Z,5.90
2019-05-19T17:24:06.779Z,5.90
2019-05-19T17:26:08.054Z,5.85
2019-05-19T17:28:10.534Z,5.40
2019-05-19T17:30:12.833Z,5.70
2019-05-19T17:32:14.191Z,6.75
2019-05-19T17:34:15.530Z,6.55
2019-05-19T17:36:16.950Z,6.62
2019-05-19T17:40:19.758Z,5.45
2019-05-19T17:44:22.174Z,5.00
2019-05-19T17:46:24.730Z,4.35
2019-05-19T17:48:26.989Z,4.25
2019-05-19T17:50:31.043Z,4.70
2019-05-19T17:52:32.417Z,5.15
2019-05-19T17:54:33.722Z,4.90
2019-05-19T17:56:35.938Z,5.35
2019-05-19T17:58:37.434Z,6.08
2019-05-19T18:04:41.941Z,5.10
2019-05-19T18:06:43.254Z,5.12
2019-05-19T18:08:44.539Z,4.67
2019-05-19T18:10:45.998Z,5.60
2019-05-19T18:12:47.281Z,5.12
2019-05-19T18:14:48.582Z,5.75
2019-05-19T18:16:49.908Z,6.22
2019-05-19T18:18:51.365Z,6.28
2019-05-19T18:20:52.912Z,5.55
2019-05-19T18:24:55.398Z,5.80
2019-05-19T18:26:57.005Z,5.80
2019-05-19T18:28:58.581Z,5.50
2019-05-19T18:33:01.282Z,5.92
2019-05-19T18:35:04.423Z,5.37
2019-05-19T18:37:05.705Z,5.25
2019-05-19T18:39:07.026Z,5.53
2019-05-19T18:41:08.298Z,5.72
2019-05-19T18:43:09.563Z,6.75
2019-05-19T18:45:11.345Z,6.83
2019-05-19T18:47:12.770Z,6.90
2019-05-19T18:49:14.034Z,6.90
2019-05-19T18:51:15.427Z,6.50
2019-05-19T18:53:16.686Z,6.90
2019-05-19T18:55:18.246Z,7.03
2019-05-19T18:59:21.189Z,6.85
2019-05-19T19:03:23.798Z,8.88
2019-05-19T19:05:25.398Z,8.33
2019-05-19T19:07:47.385Z,7.50
2019-05-19T19:09:48.655Z,9.78
2019-05-19T19:11:50.238Z,9.33
2019-05-19T19:13:51.617Z,9.80
2019-05-19T19:15:52.917Z,11.12
2019-05-19T19:17:54.239Z,9.25
2019-05-19T19:19:56.729Z,10.82
2019-05-19T19:21:58.010Z,12.37
2019-05-19T19:23:59.366Z,12.18
2019-05-19T19:26:01.641Z,11.50
2019-05-19T19:28:03.163Z,11.10
2019-05-19T19:32:06.763Z,10.20
2019-05-19T19:36:09.254Z,9.48
2019-05-19T19:38:10.787Z,9.95
2019-05-19T19:40:16.983Z,10.90
2019-05-19T19:42:18.339Z,11.93
2019-05-19T19:46:28.773Z,10.60
2019-05-19T19:48:30.294Z,13.15
2019-05-19T19:52:33.553Z,10.00
2019-05-19T19:54:37.980Z,11.53
2019-05-19T19:56:39.358Z,11.35
2019-05-19T19:58:40.630Z,11.05
2019-05-19T20:00:43.270Z,11.03
2019-05-19T20:02:44.870Z,9.78
2019-05-19T20:06:47.809Z,9.33
2019-05-19T20:08:49.402Z,10.18
2019-05-19T20:12:52.048Z,13.65
2019-05-19T20:14:53.316Z,12.23
2019-05-19T20:16:54.589Z,12.25
2019-05-19T20:18:55.942Z,12.45
2019-05-19T20:20:57.449Z,13.10
2019-05-19T20:24:59.873Z,10.28
2019-05-19T20:27:01.144Z,11.88
2019-05-19T20:29:02.397Z,10.30
2019-05-19T20:31:04.008Z,12.93
2019-05-19T20:35:06.634Z,11.80
2019-05-19T20:37:08.158Z,11.83
2019-05-19T20:39:09.425Z,11.78
2019-05-19T20:41:10.721Z,11.15
2019-05-19T20:43:11.986Z,11.33
2019-05-19T20:45:13.457Z,10.90
2019-05-19T20:49:15.987Z,11.40
2019-05-19T20:51:17.357Z,11.38
2019-05-19T20:53:18.665Z,11.38
2019-05-19T20:55:20.012Z,10.45
2019-05-19T20:57:21.384Z,11.00
2019-05-19T20:59:22.914Z,10.68
2019-05-19T21:03:25.322Z,12.15
2019-05-19T21:05:26.895Z,12.95
2019-05-19T21:09:30.714Z,9.33
2019-05-19T21:13:33.457Z,11.35
2019-05-19T21:15:35.013Z,9.75
2019-05-19T21:19:37.482Z,11.60
2019-05-19T21:21:38.754Z,10.43
2019-05-19T21:23:41.877Z,11.63
2019-05-19T21:27:44.366Z,10.82
2019-05-19T21:29:45.898Z,10.45
2019-05-19T21:31:48.170Z,11.78
2019-05-19T21:33:49.694Z,10.72
2019-05-19T21:37:54.469Z,11.78
2019-05-19T21:39:55.977Z,11.28
2019-05-19T21:41:58.246Z,11.15
2019-05-19T21:43:59.806Z,11.50
2019-05-19T21:48:03.025Z,11.65
2019-05-19T21:52:06.375Z,10.93
2019-05-19T21:54:07.651Z,11.73
2019-05-19T21:56:09.076Z,11.68
2019-05-19T21:58:10.439Z,11.10
2019-05-19T22:00:12.470Z,12.82
2019-05-19T22:02:15.629Z,11.45
2019-05-19T22:04:16.931Z,11.25
2019-05-19T22:06:20.089Z,11.63
2019-05-19T22:08:21.401Z,10.80
2019-05-19T22:10:22.662Z,10.03
2019-05-19T22:12:23.926Z,11.35
2019-05-19T22:14:25.195Z,12.88
2019-05-19T22:16:26.468Z,11.40
2019-05-19T22:18:27.756Z,10.28
2019-05-19T22:20:29.046Z,10.65
2019-05-19T22:22:30.436Z,11.63
2019-05-19T22:24:31.697Z,12.20
2019-05-19T22:26:33.230Z,12.55
2019-05-19T22:30:36.228Z,10.58
2019-05-19T22:34:38.634Z,11.77
2019-05-19T22:36:39.906Z,12.28
2019-05-19T22:38:41.181Z,11.68
2019-05-19T22:40:42.451Z,12.68
2019-05-19T22:42:43.710Z,12.82
2019-05-19T22:44:44.982Z,11.78
2019-05-19T22:46:46.251Z,12.40
2019-05-19T22:48:47.521Z,11.55
2019-05-19T22:50:48.789Z,11.75
2019-05-19T22:52:50.301Z,14.20
2019-05-19T22:56:52.811Z,12.58
2019-05-19T22:58:54.235Z,13.13
2019-05-19T23:00:55.691Z,14.45
2019-05-19T23:02:56.953Z,15.65
2019-05-19T23:04:58.222Z,15.90
2019-05-19T23:06:59.765Z,15.48
2019-05-19T23:09:01.153Z,15.78
2019-05-19T23:13:03.786Z,16.20
2019-05-19T23:15:05.874Z,14.87
2019-05-19T23:17:07.230Z,12.95
2019-05-19T23:19:08.602Z,12.47
2019-05-19T23:21:10.286Z,13.00
2019-05-19T23:25:12.834Z,12.10
2019-05-19T23:27:14.173Z,12.35
2019-05-19T23:29:16.709Z,12.30
2019-05-19T23:33:19.139Z,10.27
2019-05-19T23:35:20.507Z,11.65
2019-05-19T23:37:21.821Z,11.25
2019-05-19T23:39:23.341Z,11.78
2019-05-19T23:41:24.624Z,11.83
2019-05-19T23:43:25.979Z,11.93
2019-05-19T23:45:27.249Z,12.25
2019-05-19T23:47:28.778Z,12.10
2019-05-19T23:51:31.586Z,12.98
2019-05-19T23:53:32.845Z,11.30
2019-05-19T23:55:34.133Z,11.68
2019-05-19T23:57:35.409Z,12.45
2019-05-19T23:59:36.782Z,10.98
